Time;durP1;ratioP1;P1;durP2;ratioP2;P2;SDS_P1;SDS_P2;PMS_P1;PMS_P2;Temp;Humidity;BMP_temperature;BMP_pressure;BME280_temperature;BME280_humidity;BME280_pressure;Samples;Min_cycle;Max_cycle;Signal;HPM_P1;HPM_P2
2023/10/17 00:01:33;;;;;;;2.95;0.88;;;;;;;6.99;56.95;102222.16;4957720;28;20042;-69
2023/10/17 00:04:26;;;;;;;3.53;0.75;;;;;;;7.08;56.94;102211.72;4953780;28;20425;-69
2023/10/17 00:06:54;;;;;;;1.33;0.50;;;;;;;7.09;57.09;102216.06;4955119;28;20349;-68
2023/10/17 00:09:26;;;;;;;4.60;0.70;;;;;;;7.11;56.69;102214.31;4974986;28;20032;-68
2023/10/17 00:14:20;;;;;;;1.90;0.40;;;;;;;7.09;57.07;102219.50;4980578;28;20024;-70
2023/10/17 00:16:46;;;;;;;2.92;0.40;;;;;;;7.05;57.14;102215.19;4981345;28;20022;-69
2023/10/17 00:19:16;;;;;;;2.15;0.50;;;;;;;7.09;57.20;102218.66;4969420;28;20100;-65
2023/10/17 00:21:41;;;;;;;1.83;0.50;;;;;;;7.07;57.28;102220.38;4976084;28;20037;-67
2023/10/17 00:24:10;;;;;;;6.25;0.50;;;;;;;6.99;56.53;102216.94;4983033;28;20524;-68
2023/10/17 00:26:40;;;;;;;2.60;0.55;;;;;;;6.98;56.85;102216.09;4969656;28;20052;-68
2023/10/17 00:29:10;;;;;;;1.15;0.47;;;;;;;6.95;56.83;102216.06;4993247;28;20048;-68
2023/10/17 00:31:37;;;;;;;1.77;0.40;;;;;;;7.05;57.02;102211.72;4980053;28;20033;-68
2023/10/17 00:34:16;;;;;;;1.70;0.52;;;;;;;7.16;56.42;102211.69;4974345;28;20409;-68
2023/10/17 00:36:48;;;;;;;1.67;0.50;;;;;;;7.17;56.20;102203.84;4983471;28;20073;-68
2023/10/17 00:39:31;;;;;;;2.90;0.70;;;;;;;7.23;56.35;102201.25;5009274;28;20275;-65
2023/10/17 00:44:40;;;;;;;4.43;0.63;;;;;;;7.21;56.28;102200.38;4979619;28;20046;-69
2023/10/17 00:47:08;;;;;;;6.03;0.55;;;;;;;7.25;56.39;102203.84;4981328;28;20034;-71
2023/10/17 00:49:41;;;;;;;3.60;0.90;;;;;;;7.19;56.32;102202.13;4979054;28;20268;-70
2023/10/17 00:52:19;;;;;;;1.30;0.32;;;;;;;7.18;56.92;102196.94;4989521;28;20131;-70
2023/10/17 00:54:45;;;;;;;2.38;0.40;;;;;;;7.09;56.69;102197.84;4973811;28;20489;-68
2023/10/17 00:57:14;;;;;;;3.72;0.80;;;;;;;7.01;56.71;102204.81;4977328;28;20081;-70
2023/10/17 00:59:44;;;;;;;0.95;0.43;;;;;;;6.95;56.59;102200.47;4977145;28;20253;-67
2023/10/17 01:02:11;;;;;;;4.60;0.63;;;;;;;6.88;56.91;102194.44;4970716;28;20058;-68
2023/10/17 01:04:40;;;;;;;1.58;0.43;;;;;;;6.87;56.98;102197.06;4995721;28;20570;-70
2023/10/17 01:07:07;;;;;;;1.17;0.50;;;;;;;6.83;57.28;102192.75;4974254;28;20026;-69
2023/10/17 01:09:35;;;;;;;0.80;0.52;;;;;;;6.78;57.36;102192.75;4985482;28;20025;-69
2023/10/17 01:12:01;;;;;;;4.07;0.75;;;;;;;6.83;57.58;102184.94;4982400;28;21833;-69
2023/10/17 01:14:30;;;;;;;0.93;0.40;;;;;;;6.91;57.33;102181.44;4986190;28;20054;-68
2023/10/17 01:16:57;;;;;;;1.35;0.57;;;;;;;6.94;57.30;102187.50;4976187;28;20580;-69
2023/10/17 01:19:23;;;;;;;1.67;0.43;;;;;;;6.89;56.93;102185.78;4978401;28;20495;-67
2023/10/17 01:21:49;;;;;;;0.95;0.38;;;;;;;6.96;57.34;102183.19;4981630;28;20125;-67
2023/10/17 01:24:16;;;;;;;1.60;0.45;;;;;;;7.04;56.90;102181.38;4977917;28;20061;-67
2023/10/17 01:26:45;;;;;;;2.00;0.60;;;;;;;7.03;56.60;102182.28;4985058;28;20405;-68
2023/10/17 01:29:11;;;;;;;2.30;0.50;;;;;;;7.06;57.06;102182.25;4976953;28;20038;-67
2023/10/17 01:31:43;;;;;;;2.53;0.30;;;;;;;7.08;56.90;102180.50;4979937;28;20528;-68
2023/10/17 01:34:09;;;;;;;1.13;0.32;;;;;;;7.09;57.17;102182.25;4975624;28;20034;-67
2023/10/17 01:36:37;;;;;;;1.85;0.45;;;;;;;7.13;56.97;102186.53;4968438;28;20120;-69
2023/10/17 01:39:06;;;;;;;1.63;0.50;;;;;;;7.08;56.88;102185.72;4975193;28;20068;-70
2023/10/17 01:41:32;;;;;;;6.15;0.60;;;;;;;6.93;56.61;102181.41;4975555;28;20038;-70
2023/10/17 01:43:58;;;;;;;2.67;0.52;;;;;;;7.04;56.63;102183.97;4980303;28;20125;-69
2023/10/17 01:46:28;;;;;;;0.95;0.40;;;;;;;7.06;56.76;102184.84;4963653;28;20428;-69
2023/10/17 01:48:54;;;;;;;2.83;0.50;;;;;;;7.04;56.37;102177.06;4972759;28;20044;-69
2023/10/17 01:51:24;;;;;;;1.23;0.40;;;;;;;7.03;56.50;102177.94;4992894;28;20036;-68
2023/10/17 01:53:51;;;;;;;5.60;1.05;;;;;;;7.07;56.10;102178.78;4975406;28;20046;-67
2023/10/17 01:56:20;;;;;;;1.02;0.55;;;;;;;7.12;56.26;102171.81;4977714;28;20519;-68
2023/10/17 01:58:49;;;;;;;3.28;0.52;;;;;;;7.06;56.27;102169.25;4972279;28;20042;-68
2023/10/17 02:01:24;;;;;;;5.43;0.70;;;;;;;7.08;56.37;102167.50;4984695;28;20408;-68
2023/10/17 02:04:01;;;;;;;1.60;0.40;;;;;;;7.02;56.55;102168.41;4974705;28;21212;-67
2023/10/17 02:06:26;;;;;;;1.10;0.47;;;;;;;6.99;56.63;102175.34;4978240;28;20031;-68
2023/10/17 02:08:54;;;;;;;3.70;0.50;;;;;;;7.04;56.52;102173.59;4973103;28;20490;-68
2023/10/17 02:11:23;;;;;;;1.83;0.43;;;;;;;7.01;56.50;102178.81;4995385;28;20030;-67
2023/10/17 02:13:59;;;;;;;4.88;0.45;;;;;;;7.05;56.58;102181.38;4971237;28;20046;-68
2023/10/17 02:16:28;;;;;;;2.00;0.73;;;;;;;7.05;56.56;102185.72;4983512;28;20080;-68
2023/10/17 02:18:54;;;;;;;1.30;0.30;;;;;;;7.06;56.44;102183.09;4965642;28;20110;-68
2023/10/17 02:21:21;;;;;;;1.67;0.68;;;;;;;7.09;56.55;102190.06;4982219;28;20033;-69
2023/10/17 02:23:50;;;;;;;2.70;0.60;;;;;;;7.08;56.57;102185.72;4974906;28;20050;-67
2023/10/17 02:26:25;;;;;;;1.63;0.40;;;;;;;7.05;56.42;102183.13;5009448;28;20034;-68
2023/10/17 02:29:06;;;;;;;1.33;1.05;;;;;;;7.11;56.54;102177.91;4972778;28;20069;-68
2023/10/17 02:31:32;;;;;;;1.90;0.93;;;;;;;7.19;56.21;102176.13;4979547;28;21686;-68
2023/10/17 02:33:58;;;;;;;4.75;0.70;;;;;;;7.19;56.51;102185.66;4981137;28;20489;-67
2023/10/17 02:36:26;;;;;;;2.47;0.50;;;;;;;7.17;56.26;102185.66;4976225;28;20072;-68
2023/10/17 02:38:52;;;;;;;4.10;0.80;;;;;;;7.10;55.93;102178.78;4979556;28;20098;-68
2023/10/17 02:41:23;;;;;;;2.47;0.63;;;;;;;7.15;56.30;102182.19;4978726;28;20029;-68
2023/10/17 02:43:55;;;;;;;2.08;0.50;;;;;;;7.05;56.08;102178.78;4972294;28;20134;-67
2023/10/17 02:46:28;;;;;;;2.83;0.57;;;;;;;7.04;56.24;102178.78;4978703;28;20573;-67
2023/10/17 02:48:57;;;;;;;3.42;0.50;;;;;;;7.04;56.40;102181.38;4979371;28;20046;-67
2023/10/17 02:53:53;;;;;;;1.73;0.40;;;;;;;7.13;56.42;102183.94;4957050;28;20188;-69
2023/10/17 02:56:19;;;;;;;1.10;0.50;;;;;;;7.12;56.27;102184.81;4956629;28;20041;-68
2023/10/17 02:58:49;;;;;;;2.22;0.60;;;;;;;7.11;56.27;102185.72;4977772;28;20161;-68
2023/10/17 03:01:15;;;;;;;1.00;0.50;;;;;;;7.12;56.40;102179.63;4986607;28;20443;-69
2023/10/17 03:03:42;;;;;;;1.42;0.75;;;;;;;7.15;56.61;102177.00;4974606;28;20586;-69
2023/10/17 03:06:08;;;;;;;1.98;0.82;;;;;;;6.98;55.87;102186.63;4974292;28;20525;-69
2023/10/17 03:08:36;;;;;;;4.18;0.80;;;;;;;6.88;56.23;102184.03;4975956;28;20393;-68
2023/10/17 03:11:08;;;;;;;1.63;0.50;;;;;;;6.87;56.52;102178.88;4981708;28;20034;-70
2023/10/17 03:13:40;;;;;;;1.65;0.50;;;;;;;6.87;56.48;102194.47;4975148;28;20034;-70
2023/10/17 03:16:17;;;;;;;2.00;0.85;;;;;;;6.84;56.70;102182.34;4979261;28;20346;-70
2023/10/17 03:18:50;;;;;;;4.13;1.10;;;;;;;6.79;56.98;102184.06;4966116;28;20057;-71
2023/10/17 03:21:19;;;;;;;6.53;1.10;;;;;;;6.78;56.82;102182.38;4985863;28;20125;-70
2023/10/17 03:23:49;;;;;;;4.53;0.63;;;;;;;6.82;56.69;102191.88;4957158;28;20085;-72
2023/10/17 03:26:18;;;;;;;2.78;0.77;;;;;;;6.86;57.11;102185.81;4954493;28;20073;-71
2023/10/17 03:28:45;;;;;;;1.10;0.40;;;;;;;6.96;56.88;102190.97;4959039;28;20055;-70
2023/10/17 03:31:20;;;;;;;1.70;0.98;;;;;;;7.07;56.79;102184.84;4985543;28;20525;-69
2023/10/17 03:33:50;;;;;;;4.43;1.20;;;;;;;7.08;56.58;102185.72;4956672;28;20607;-70
2023/10/17 03:39:27;;;;;;;3.75;0.80;;;;;;;6.94;56.39;102184.91;4973083;28;20046;-69
2023/10/17 03:41:56;;;;;;;1.52;0.75;;;;;;;6.79;56.61;102178.88;4971172;28;20053;-69
2023/10/17 03:44:31;;;;;;;1.63;0.65;;;;;;;6.77;56.65;102175.41;4978641;28;20021;-69
2023/10/17 03:47:04;;;;;;;3.75;0.98;;;;;;;6.86;56.55;102175.41;4973782;28;20033;-69
2023/10/17 03:49:36;;;;;;;4.63;1.20;;;;;;;6.93;56.69;102176.22;4987320;28;20250;-72
2023/10/17 03:52:14;;;;;;;2.40;0.88;;;;;;;6.95;56.46;102184.88;4980624;28;20476;-68
2023/10/17 03:54:44;;;;;;;1.42;0.80;;;;;;;6.91;56.32;102180.59;4980453;28;20362;-71
2023/10/17 03:57:16;;;;;;;4.38;1.40;;;;;;;6.84;56.91;102192.75;4996990;28;20505;-70
2023/10/17 03:59:56;;;;;;;2.72;1.13;;;;;;;6.82;57.03;102188.41;4977950;28;20126;-72
2023/10/17 04:02:24;;;;;;;2.75;0.70;;;;;;;6.82;56.96;102189.28;4987752;28;20631;-69
2023/10/17 04:04:57;;;;;;;1.85;0.88;;;;;;;6.91;56.81;102188.38;4978865;28;20038;-71
2023/10/17 04:07:26;;;;;;;3.38;0.75;;;;;;;6.94;56.72;102190.09;4994149;28;20500;-71
2023/10/17 04:09:53;;;;;;;2.85;0.88;;;;;;;6.85;56.67;102186.66;4977004;28;20072;-67
2023/10/17 04:12:37;;;;;;;1.98;0.65;;;;;;;6.73;56.71;102184.13;4994808;28;20057;-69
2023/10/17 04:15:04;;;;;;;3.30;0.70;;;;;;;6.67;56.86;102179.78;4965262;28;21175;-69
2023/10/17 04:17:36;;;;;;;2.58;0.70;;;;;;;6.71;56.86;102172.88;4981569;28;20062;-69
2023/10/17 04:20:11;;;;;;;3.88;0.60;;;;;;;6.72;57.45;102177.19;4980737;28;20038;-69
2023/10/17 04:22:43;;;;;;;1.80;0.60;;;;;;;6.84;57.05;102171.97;4980206;28;20071;-69
2023/10/17 04:27:59;;;;;;;1.65;0.52;;;;;;;6.95;57.05;102171.03;4977415;28;20244;-68
2023/10/17 04:30:35;;;;;;;1.30;0.60;;;;;;;6.98;57.15;102174.50;4980237;28;20034;-76
2023/10/17 04:33:12;;;;;;;2.80;0.65;;;;;;;7.05;56.93;102175.34;4976336;28;20421;-70
2023/10/17 04:35:47;;;;;;;15.55;1.05;;;;;;;7.06;56.74;102172.72;4995567;28;20129;-70
2023/10/17 04:40:50;;;;;;;5.55;1.05;;;;;;;7.10;56.46;102171.81;4981835;28;20034;-71
2023/10/17 04:43:44;;;;;;;3.80;0.85;;;;;;;7.00;56.27;102171.88;4975890;28;20583;-71
2023/10/17 04:46:08;;;;;;;3.50;1.13;;;;;;;6.93;56.36;102170.16;4978616;28;20571;-70
2023/10/17 04:48:37;;;;;;;1.77;1.02;;;;;;;6.90;56.81;102171.06;4978406;28;20120;-71
2023/10/17 04:53:49;;;;;;;5.50;0.93;;;;;;;7.00;56.55;102164.06;4980368;28;20046;-70
2023/10/17 04:56:17;;;;;;;3.53;1.08;;;;;;;7.02;56.13;102159.72;4967516;28;20428;-70
2023/10/17 05:04:31;;;;;;;2.78;1.33;;;;;;;6.74;56.86;102177.19;4964313;28;20265;-71
2023/10/17 06:18:32;;;;;;;2.05;0.93;;;;;;;6.75;57.20;102236.06;4975055;28;20046;-71
2023/10/17 06:27:12;;;;;;;2.17;1.20;;;;;;;7.05;56.71;102237.72;4973226;28;20537;-72
2023/10/17 06:32:11;;;;;;;1.73;0.90;;;;;;;7.15;56.75;102234.19;4976839;28;21116;-71
2023/10/17 06:34:38;;;;;;;3.00;0.97;;;;;;;7.11;56.73;102232.50;4977217;28;20041;-69
2023/10/17 06:37:07;;;;;;;1.33;0.70;;;;;;;7.06;56.78;102232.50;4970655;28;20113;-70
2023/10/17 06:39:49;;;;;;;6.80;0.80;;;;;;;7.18;56.50;102234.22;4972392;28;20042;-71
2023/10/17 06:42:15;;;;;;;3.20;1.58;;;;;;;7.17;56.33;102229.00;4952816;28;20421;-70
2023/10/17 06:44:52;;;;;;;3.95;1.08;;;;;;;7.23;56.58;102227.25;4959219;28;20404;-70
2023/10/17 06:47:21;;;;;;;1.67;0.60;;;;;;;7.28;56.48;102228.09;4960794;28;20081;-69
2023/10/17 06:50:16;;;;;;;1.88;0.55;;;;;;;7.31;56.47;102224.59;4955378;28;20619;-70
2023/10/17 06:53:34;;;;;;;4.82;0.70;;;;;;;7.31;56.43;102227.19;4958519;28;20081;-70
2023/10/17 06:55:38;;;;;;;6.85;1.40;;;;;;;7.29;56.32;102231.56;4956312;28;20054;-70
2023/10/17 06:58:10;;;;;;;4.93;0.57;;;;;;;7.29;55.94;102229.81;4968903;28;20473;-70
2023/10/17 07:00:43;;;;;;;2.80;0.60;;;;;;;7.41;56.16;102233.25;4957827;28;20528;-69
2023/10/17 07:03:15;;;;;;;2.92;0.75;;;;;;;7.48;55.84;102224.53;4951854;28;20038;-70
2023/10/17 07:05:49;;;;;;;2.58;1.17;;;;;;;7.55;55.96;102234.06;4958797;28;20030;-68
2023/10/17 07:08:21;;;;;;;2.28;0.80;;;;;;;7.55;55.81;102223.66;4962192;28;20099;-68
2023/10/17 07:10:59;;;;;;;4.55;1.48;;;;;;;7.49;55.28;102227.13;4985184;28;20157;-69
2023/10/17 07:13:54;;;;;;;3.13;0.70;;;;;;;7.37;55.02;102227.19;4977099;28;22458;-69
2023/10/17 07:16:33;;;;;;;1.55;0.63;;;;;;;7.37;55.45;102229.78;4970920;28;20030;-70
2023/10/17 07:24:36;;;;;;;3.75;0.45;;;;;;;7.50;54.96;102230.59;4975698;28;20104;-68
2023/10/17 07:27:11;;;;;;;4.53;0.60;;;;;;;7.48;55.37;102227.13;4992702;28;20035;-67
2023/10/17 07:29:37;;;;;;;2.00;0.45;;;;;;;7.62;55.09;102225.31;4961256;28;20062;-70
2023/10/17 07:32:09;;;;;;;3.15;0.68;;;;;;;7.79;55.00;102221.78;4961443;28;20045;-70
2023/10/17 07:34:36;;;;;;;1.63;0.68;;;;;;;7.84;54.92;102230.41;4962930;28;20030;-70
2023/10/17 07:40:15;;;;;;;3.38;0.40;;;;;;;7.80;54.32;102228.69;4979685;28;20041;-73
2023/10/17 07:42:41;;;;;;;3.65;0.60;;;;;;;8.00;53.54;102231.16;4977175;28;20412;-72
2023/10/17 07:45:21;;;;;;;1.67;0.40;;;;;;;8.10;52.73;102225.88;4959881;28;20042;-67
2023/10/17 07:47:51;;;;;;;2.67;0.50;;;;;;;8.10;52.83;102233.69;4967734;28;20460;-69
2023/10/17 07:50:18;;;;;;;1.30;0.43;;;;;;;8.02;52.37;102234.63;4975718;28;20026;-72
2023/10/17 07:52:47;;;;;;;1.38;0.40;;;;;;;8.08;52.92;102240.66;4981306;28;20042;-70
2023/10/17 07:56:04;;;;;;;4.40;0.68;;;;;;;8.19;52.46;102232.75;4977005;28;20179;-71
2023/10/17 07:58:06;;;;;;;3.10;0.73;;;;;;;8.08;53.07;102226.78;4975937;28;20785;-71
2023/10/17 08:00:36;;;;;;;5.50;0.63;;;;;;;8.20;52.72;102237.06;4980165;28;20125;-70
2023/10/17 08:03:09;;;;;;;7.88;0.85;;;;;;;8.47;52.38;102238.59;4979598;28;20042;-69
2023/10/17 08:05:40;;;;;;;4.30;1.02;;;;;;;8.70;52.07;102237.50;4981439;28;20393;-70
2023/10/17 08:08:20;;;;;;;3.85;0.70;;;;;;;8.80;50.67;102235.69;4974921;28;20053;-69
2023/10/17 08:10:46;;;;;;;1.30;0.52;;;;;;;8.77;50.34;102237.44;4982020;28;20371;-71
2023/10/17 08:13:13;;;;;;;2.63;0.47;;;;;;;8.81;50.68;102235.66;4974415;28;20053;-70
2023/10/17 08:15:43;;;;;;;1.83;0.88;;;;;;;8.83;49.93;102241.75;4988904;28;20034;-71
2023/10/17 08:18:14;;;;;;;4.72;0.77;;;;;;;8.91;49.67;102244.25;4975837;28;20141;-70
2023/10/17 08:23:26;;;;;;;3.45;0.60;;;;;;;8.36;51.23;102235.22;4974819;28;20053;-71
2023/10/17 08:26:00;;;;;;;2.92;0.63;;;;;;;8.30;51.30;102230.91;4982285;28;20085;-71
2023/10/17 08:28:33;;;;;;;2.40;0.47;;;;;;;8.22;51.94;102232.72;4979554;28;20042;-71
2023/10/17 08:33:57;;;;;;;1.95;0.40;;;;;;;8.29;52.05;102228.31;4979659;28;20524;-70
2023/10/17 08:36:41;;;;;;;6.13;5.60;;;;;;;8.79;53.00;102227.00;5006063;28;20038;-72
2023/10/17 08:39:51;;;;;;;2.00;1.55;;;;;;;10.63;47.53;102229.50;4976933;28;20568;-69
2023/10/17 08:42:12;;;;;;;1.35;0.68;;;;;;;11.85;43.92;102227.88;4973177;28;20050;-73
2023/10/17 08:44:42;;;;;;;2.92;0.73;;;;;;;12.24;41.83;102225.16;4980649;28;20086;-73
2023/10/17 08:47:07;;;;;;;5.97;1.15;;;;;;;11.85;42.05;102222.66;4984932;28;20107;-70
2023/10/17 08:49:33;;;;;;;3.70;0.47;;;;;;;12.18;41.80;102220.09;4971087;28;20045;-71
2023/10/17 08:51:59;;;;;;;2.30;0.40;;;;;;;12.34;41.54;102217.09;4979754;28;20476;-70
2023/10/17 08:54:29;;;;;;;1.55;0.40;;;;;;;12.85;40.88;102227.09;4976436;28;20386;-71
2023/10/17 08:57:01;;;;;;;1.90;0.50;;;;;;;13.28;41.58;102226.69;4977587;28;20038;-68
2023/10/17 09:04:43;;;;;;;5.30;0.57;;;;;;;13.89;36.79;102223.94;4980583;28;20292;-68
2023/10/17 09:07:09;;;;;;;1.25;0.28;;;;;;;14.58;35.63;102223.41;4969537;28;20044;-69
2023/10/17 09:09:35;;;;;;;2.17;0.20;;;;;;;14.67;34.33;102217.81;4972468;28;20532;-69
2023/10/17 09:12:01;;;;;;;2.75;0.70;;;;;;;14.16;34.07;102221.31;4978822;28;20049;-70
2023/10/17 09:14:35;;;;;;;1.40;0.10;;;;;;;13.35;35.55;102223.91;4973011;28;20044;-68
2023/10/17 09:17:16;;;;;;;0.95;0.30;;;;;;;13.19;36.05;102226.97;4976046;28;20057;-69
2023/10/17 09:19:46;;;;;;;4.93;0.10;;;;;;;13.26;35.67;102217.16;5007152;28;20103;-69
2023/10/17 09:22:16;;;;;;;1.38;0.10;;;;;;;13.18;35.33;102219.13;4972648;28;20047;-73
2023/10/17 09:24:49;;;;;;;1.50;0.08;;;;;;;13.22;34.52;102215.53;4957913;28;20439;-73
2023/10/17 09:27:17;;;;;;;3.90;0.47;;;;;;;13.43;34.11;102228.00;4954473;28;20409;-69
2023/10/17 09:29:58;;;;;;;1.77;0.60;;;;;;;14.14;33.37;102223.13;4963970;28;20786;-72
2023/10/17 09:32:40;;;;;;;1.20;0.10;;;;;;;14.18;34.38;102222.13;4951114;28;20497;-69
2023/10/17 09:35:10;;;;;;;1.98;0.10;;;;;;;14.96;32.51;102214.09;4958448;28;20325;-70
2023/10/17 09:37:56;;;;;;;3.20;0.30;;;;;;;14.12;31.97;102217.06;4949957;28;20937;-70
2023/10/17 09:40:27;;;;;;;1.90;0.20;;;;;;;14.11;31.78;102218.84;4958818;28;20038;-70
2023/10/17 09:42:53;;;;;;;0.70;0.10;;;;;;;13.92;32.83;102218.59;4956243;28;20589;-72
2023/10/17 09:45:19;;;;;;;4.13;0.20;;;;;;;13.83;33.29;102211.03;4954557;28;20069;-72
2023/10/17 09:47:51;;;;;;;1.35;0.40;;;;;;;13.66;33.52;102218.59;4969702;28;20116;-69
2023/10/17 09:50:18;;;;;;;1.13;0.17;;;;;;;13.86;33.33;102208.28;4972189;28;20042;-71
2023/10/17 09:52:51;;;;;;;0.47;0.10;;;;;;;13.83;32.02;102208.41;4973332;28;20587;-68
2023/10/17 09:55:23;;;;;;;1.40;0.00;;;;;;;14.17;33.10;102207.28;4958120;28;20062;-70
2023/10/17 09:58:10;;;;;;;1.55;0.10;;;;;;;14.82;31.67;102207.66;4956660;28;20046;-70
2023/10/17 10:00:42;;;;;;;2.35;1.15;;;;;;;14.46;31.49;102208.91;4953457;28;20034;-70
2023/10/17 10:03:09;;;;;;;1.52;0.10;;;;;;;14.85;32.66;102199.63;4963633;28;20161;-71
2023/10/17 10:05:34;;;;;;;2.67;0.22;;;;;;;14.99;32.07;102202.59;4953446;28;20092;-68
2023/10/17 10:08:04;;;;;;;1.95;0.20;;;;;;;14.71;31.59;102197.50;4945893;28;20054;-70
2023/10/17 10:10:42;;;;;;;1.52;0.10;;;;;;;14.83;32.54;102196.19;4950510;28;20039;-71
2023/10/17 10:13:13;;;;;;;1.85;0.10;;;;;;;14.91;31.89;102196.78;4959191;28;20064;-71
2023/10/17 10:16:01;;;;;;;0.97;0.10;;;;;;;15.03;33.12;102201.56;4957648;28;21201;-72
2023/10/17 10:18:35;;;;;;;2.42;0.10;;;;;;;15.62;30.78;102196.69;4952087;28;20058;-73
2023/10/17 10:21:05;;;;;;;3.33;0.40;;;;;;;15.85;29.65;102198.41;4960136;28;20042;-72
2023/10/17 10:23:36;;;;;;;1.20;0.20;;;;;;;15.44;30.37;102193.88;4964488;28;20050;-70
2023/10/17 10:26:19;;;;;;;1.20;0.22;;;;;;;15.48;31.76;102192.84;4964830;28;20053;-74
2023/10/17 10:28:52;;;;;;;0.90;0.08;;;;;;;16.04;31.00;102187.94;4951941;28;20053;-70
2023/10/17 10:31:24;;;;;;;0.73;0.10;;;;;;;15.48;29.49;102179.69;4977580;28;20306;-72
2023/10/17 10:34:00;;;;;;;1.85;0.20;;;;;;;15.30;29.93;102185.66;4980439;28;20481;-71
2023/10/17 10:36:26;;;;;;;0.30;0.10;;;;;;;14.86;30.33;102185.56;4969484;28;20481;-71
2023/10/17 10:38:54;;;;;;;0.60;0.10;;;;;;;15.42;30.90;102179.91;4961393;28;20058;-72
2023/10/17 10:41:22;;;;;;;3.50;0.10;;;;;;;14.66;29.98;102183.69;4976732;28;20033;-73
2023/10/17 10:43:49;;;;;;;1.10;0.10;;;;;;;14.59;30.08;102193.56;4977698;28;20034;-73
2023/10/17 10:46:17;;;;;;;0.77;0.30;;;;;;;14.73;30.43;102180.75;4975509;28;20030;-72
2023/10/17 10:48:53;;;;;;;1.45;0.10;;;;;;;14.81;29.99;102187.50;4968826;28;20045;-70
2023/10/17 10:51:26;;;;;;;0.75;0.10;;;;;;;15.12;29.43;102180.16;4968340;28;20096;-68
2023/10/17 10:53:56;;;;;;;3.10;1.45;;;;;;;15.20;29.90;102185.13;4989095;28;20036;-68
2023/10/17 10:56:24;;;;;;;3.95;0.10;;;;;;;14.79;29.41;102184.06;4973590;28;20323;-68
2023/10/17 10:58:57;;;;;;;2.47;0.10;;;;;;;14.68;29.11;102177.44;4976621;28;20045;-71
2023/10/17 11:01:25;;;;;;;1.27;0.05;;;;;;;14.68;30.41;102177.44;4971925;28;20254;-71
2023/10/17 11:03:52;;;;;;;1.52;0.10;;;;;;;14.72;29.83;102176.41;4975720;28;20046;-66
2023/10/17 11:06:38;;;;;;;3.97;0.10;;;;;;;14.35;30.00;102169.81;4975948;28;20293;-69
2023/10/17 11:09:09;;;;;;;1.67;0.30;;;;;;;14.47;30.85;102165.91;4978762;28;20423;-67
2023/10/17 11:11:49;;;;;;;0.32;0.00;;;;;;;15.22;29.76;102161.41;4976444;28;20572;-70
2023/10/17 11:14:18;;;;;;;2.35;0.10;;;;;;;14.61;29.30;102170.66;4980250;28;20049;-68
2023/10/17 11:16:50;;;;;;;3.90;0.20;;;;;;;15.52;28.45;102157.53;4970789;28;20782;-71
2023/10/17 11:19:22;;;;;;;0.90;0.30;;;;;;;15.56;29.13;102161.75;4979441;28;20145;-68
2023/10/17 11:21:57;;;;;;;0.52;0.10;;;;;;;14.81;29.79;102163.81;4970653;28;20481;-66
2023/10/17 11:24:25;;;;;;;1.90;0.10;;;;;;;14.66;29.49;102166.09;4971646;28;20038;-69
2023/10/17 11:26:52;;;;;;;3.20;0.60;;;;;;;15.12;29.40;102172.25;4974466;28;20076;-68
2023/10/17 11:29:24;;;;;;;0.52;0.10;;;;;;;15.45;28.60;102163.13;4965915;28;20038;-69
2023/10/17 11:31:51;;;;;;;0.40;0.10;;;;;;;16.18;28.80;102159.22;4975139;28;20038;-70
2023/10/17 11:34:17;;;;;;;0.43;0.10;;;;;;;16.17;28.57;102162.78;4980593;28;20069;-69
2023/10/17 11:36:47;;;;;;;1.42;0.40;;;;;;;15.65;28.39;102154.41;4984540;28;20783;-69
2023/10/17 11:39:15;;;;;;;1.67;0.10;;;;;;;15.47;28.60;102150.75;4973012;28;20038;-70
2023/10/17 11:41:53;;;;;;;3.78;0.10;;;;;;;15.31;29.28;102143.47;4978704;28;20517;-70
2023/10/17 11:44:26;;;;;;;2.15;0.20;;;;;;;15.07;28.50;102141.75;4973290;28;20388;-69
2023/10/17 11:47:03;;;;;;;3.65;0.10;;;;;;;14.77;29.05;102148.16;4978487;28;20077;-69
2023/10/17 11:49:41;;;;;;;3.10;0.63;;;;;;;15.06;28.73;102132.13;4970452;28;20607;-70
2023/10/17 11:52:10;;;;;;;0.10;0.00;;;;;;;15.23;29.34;102120.97;4972140;28;20038;-70
2023/10/17 11:55:00;;;;;;;0.77;0.13;;;;;;;15.25;29.39;102122.63;4968348;28;20087;-67
2023/10/17 11:57:27;;;;;;;2.00;0.28;;;;;;;14.91;30.33;102115.19;4972914;28;20070;-68
2023/10/17 12:00:07;;;;;;;2.78;0.20;;;;;;;14.79;29.88;102126.16;4967146;28;20095;-69
2023/10/17 12:02:33;;;;;;;1.67;0.10;;;;;;;14.49;30.66;102132.50;4969250;28;20664;-67
2023/10/17 12:05:01;;;;;;;0.70;0.10;;;;;;;14.40;29.92;102131.97;4972409;28;20042;-69
2023/10/17 12:07:27;;;;;;;2.38;0.10;;;;;;;14.23;29.46;102128.19;4974498;28;20125;-69
2023/10/17 12:09:53;;;;;;;1.52;0.03;;;;;;;13.65;31.25;102128.41;4983920;28;20043;-70
2023/10/17 12:12:19;;;;;;;1.10;0.08;;;;;;;14.02;29.29;102115.78;4976954;28;20077;-70
2023/10/17 12:14:45;;;;;;;1.20;0.10;;;;;;;14.39;29.62;102112.72;4970837;28;20484;-70
2023/10/17 12:17:13;;;;;;;0.57;0.10;;;;;;;14.36;29.74;102111.00;4990298;28;20050;-69
2023/10/17 12:19:40;;;;;;;0.50;0.10;;;;;;;14.77;29.58;102110.44;4972108;28;20044;-70
2023/10/17 12:22:06;;;;;;;1.15;0.20;;;;;;;14.49;29.76;102114.09;4976720;28;20049;-66
2023/10/17 12:24:37;;;;;;;1.65;0.17;;;;;;;13.91;30.58;102117.00;4973583;28;20038;-68
2023/10/17 12:27:06;;;;;;;2.88;0.20;;;;;;;13.75;31.16;102107.09;4975209;28;20100;-68
2023/10/17 12:29:34;;;;;;;3.90;0.15;;;;;;;14.24;30.33;102108.84;4972057;28;20046;-68
2023/10/17 12:32:01;;;;;;;2.15;1.13;;;;;;;14.13;30.37;102105.75;4974627;28;20122;-68
2023/10/17 12:34:28;;;;;;;5.43;0.17;;;;;;;14.63;29.99;102104.84;4976892;28;20038;-68
2023/10/17 12:36:54;;;;;;;1.30;0.00;;;;;;;14.85;29.26;102100.47;4953292;28;20282;-68
2023/10/17 12:39:19;;;;;;;5.35;0.30;;;;;;;14.59;28.99;102100.59;4975083;28;20060;-68
2023/10/17 12:41:46;;;;;;;0.93;0.20;;;;;;;14.48;30.87;102095.75;4971487;28;20447;-68
2023/10/17 12:44:18;;;;;;;2.22;0.10;;;;;;;14.33;30.19;102089.25;4975664;28;20046;-68
2023/10/17 12:46:44;;;;;;;1.73;0.13;;;;;;;14.51;29.27;102085.97;4973513;28;20085;-68
2023/10/17 12:49:14;;;;;;;0.93;0.10;;;;;;;14.17;29.59;102086.31;4976533;28;20314;-67
2023/10/17 12:51:41;;;;;;;0.77;0.10;;;;;;;14.39;29.63;102085.53;4970617;28;20210;-67
2023/10/17 12:54:08;;;;;;;1.65;0.10;;;;;;;14.76;30.25;102080.63;4982755;28;20519;-68
2023/10/17 12:56:36;;;;;;;5.85;0.30;;;;;;;14.72;29.36;102086.94;4976731;28;20230;-68
2023/10/17 12:59:03;;;;;;;0.75;0.10;;;;;;;14.40;29.49;102087.25;4965235;28;20129;-68
2023/10/17 13:01:29;;;;;;;0.40;0.03;;;;;;;14.63;28.89;102092.53;4972326;28;20044;-68
2023/10/17 13:03:57;;;;;;;1.33;0.10;;;;;;;14.81;30.00;102090.13;4972224;28;20038;-67
2023/10/17 13:06:25;;;;;;;4.10;0.10;;;;;;;15.52;29.58;102081.13;4999762;28;20038;-68
2023/10/17 13:08:56;;;;;;;1.55;0.10;;;;;;;15.46;29.80;102078.75;4969953;28;21466;-69
2023/10/17 13:11:23;;;;;;;1.85;0.10;;;;;;;15.49;28.92;102085.69;4975684;28;20040;-68
2023/10/17 13:13:52;;;;;;;5.20;2.90;;;;;;;15.22;28.25;102078.00;4964744;28;20497;-68
2023/10/17 13:16:18;;;;;;;0.65;0.10;;;;;;;14.96;27.65;102081.63;4971558;28;20159;-69
2023/10/17 13:18:47;;;;;;;0.77;0.10;;;;;;;14.92;28.19;102080.03;4970115;28;20077;-69
2023/10/17 13:21:13;;;;;;;1.50;0.10;;;;;;;15.13;27.38;102071.28;4976942;28;20033;-68
2023/10/17 13:23:39;;;;;;;0.40;0.00;;;;;;;15.46;27.21;102070.84;4971167;28;20252;-69
2023/10/17 13:26:12;;;;;;;0.20;0.00;;;;;;;15.12;28.53;102072.19;4977353;28;20033;-68
2023/10/17 13:28:38;;;;;;;0.60;0.17;;;;;;;15.17;27.33;102066.75;4968945;28;20046;-70
2023/10/17 13:31:15;;;;;;;0.32;0.00;;;;;;;15.52;27.12;102069.72;4978329;28;20030;-68
2023/10/17 13:33:53;;;;;;;1.27;0.10;;;;;;;15.53;27.29;102056.50;4971672;28;20042;-69
2023/10/17 13:36:20;;;;;;;0.10;0.00;;;;;;;16.29;25.70;102056.72;4981002;28;20311;-67
2023/10/17 13:38:45;;;;;;;3.92;0.20;;;;;;;17.18;25.62;102057.81;4970054;28;20472;-69
2023/10/17 13:41:14;;;;;;;1.73;0.13;;;;;;;17.29;25.76;102059.06;4977613;28;20358;-68
2023/10/17 13:43:42;;;;;;;2.35;0.10;;;;;;;17.00;25.96;102063.97;4958338;28;20564;-68
2023/10/17 13:46:18;;;;;;;2.60;0.10;;;;;;;16.82;25.43;102063.97;4976014;28;20049;-67
2023/10/17 13:48:48;;;;;;;2.38;0.10;;;;;;;16.63;26.30;102056.00;4968377;28;20712;-68
2023/10/17 13:51:15;;;;;;;2.83;0.10;;;;;;;16.69;26.03;102054.88;4978231;28;20492;-67